Time;durP1;ratioP1;P1;durP2;ratioP2;P2;SDS_P1;SDS_P2;PMS_P1;PMS_P2;Temp;Humidity;BMP_temperature;BMP_pressure;BME280_temperature;BME280_humidity;BME280_pressure;Samples;Min_cycle;Max_cycle;Signal;HPM_P1;HPM_P2
2023/09/22 00:04:30;;;;;;;2.55;1.10;;;;;;;-144.32;100.00;68061.97;10181670;29;20516;-80
2023/09/22 00:09:32;;;;;;;8.27;1.23;;;;;;;-144.32;100.00;68061.97;10172175;29;20040;-79
2023/09/22 00:14:35;;;;;;;1.67;0.80;;;;;;;-144.32;100.00;68061.97;10155028;29;20524;-77
2023/09/22 00:19:36;;;;;;;;;;;;;;;-144.32;100.00;68061.97;10176153;29;20057;-78
2023/09/22 00:24:37;;;;;;;1.77;0.65;;;;;;;-144.32;100.00;68061.97;10167966;28;20034;-78
2023/09/22 00:29:37;;;;;;;2.15;0.85;;;;;;;-144.32;100.00;68061.97;10177795;29;20690;-78
2023/09/22 00:34:38;;;;;;;1.10;0.80;;;;;;;-144.32;100.00;68061.97;10172004;29;20048;-79
2023/09/22 00:39:39;;;;;;;2.40;1.00;;;;;;;-144.32;100.00;68061.97;10176087;29;20055;-78
2023/09/22 00:44:39;;;;;;;1.48;1.02;;;;;;;-144.32;100.00;68061.97;10131213;29;20300;-79
2023/09/22 00:49:42;;;;;;;1.55;0.82;;;;;;;-144.32;100.00;68061.97;10154779;29;20428;-78
2023/09/22 00:54:43;;;;;;;1.27;1.08;;;;;;;-144.32;100.00;68061.97;10161947;29;20074;-77
2023/09/22 00:59:46;;;;;;;1.15;0.82;;;;;;;-144.32;100.00;68061.97;10169142;29;20059;-77
2023/09/22 01:04:46;;;;;;;1.00;0.80;;;;;;;-144.32;100.00;68061.97;10170919;29;20048;-76
2023/09/22 01:09:47;;;;;;;0.95;0.80;;;;;;;-144.32;100.00;68061.97;10164796;29;20486;-77
2023/09/22 01:14:47;;;;;;;1.50;0.70;;;;;;;-144.32;100.00;68061.97;10165353;29;20051;-78
2023/09/22 01:19:48;;;;;;;1.40;0.90;;;;;;;-144.32;100.00;68061.97;10163412;29;20043;-78
2023/09/22 01:24:48;;;;;;;1.15;0.90;;;;;;;-144.32;100.00;68061.97;10158998;29;20059;-78
2023/09/22 01:29:49;;;;;;;1.70;0.95;;;;;;;-144.32;100.00;68061.97;10163962;29;20409;-77
2023/09/22 01:34:49;;;;;;;0.95;0.82;;;;;;;-144.32;100.00;68061.97;10182148;29;20067;-77
2023/09/22 01:39:50;;;;;;;5.97;0.90;;;;;;;-144.32;100.00;68061.97;10179483;29;20412;-80
2023/09/22 01:44:51;;;;;;;1.30;1.10;;;;;;;-144.32;100.00;68061.97;10178206;29;20127;-81
2023/09/22 01:49:51;;;;;;;2.88;0.88;;;;;;;-144.32;100.00;68061.97;10176526;29;20047;-80
2023/09/22 01:54:52;;;;;;;1.75;1.10;;;;;;;-144.32;100.00;68061.97;10173384;29;20469;-80
2023/09/22 01:59:52;;;;;;;1.40;1.00;;;;;;;-144.32;100.00;68061.97;10177840;29;20482;-79
2023/09/22 02:04:53;;;;;;;2.00;0.90;;;;;;;-144.32;100.00;68061.97;10171256;29;20125;-78
2023/09/22 02:09:53;;;;;;;7.13;1.55;;;;;;;-144.32;100.00;68061.97;10168483;29;20044;-80
2023/09/22 02:14:54;;;;;;;2.13;1.15;;;;;;;-144.32;100.00;68061.97;10168917;29;20119;-78
2023/09/22 02:19:55;;;;;;;2.47;0.88;;;;;;;-144.32;100.00;68061.97;10172389;28;20048;-79
2023/09/22 02:24:57;;;;;;;1.63;1.30;;;;;;;-144.32;100.00;68061.97;10176535;29;20044;-77
2023/09/22 02:29:57;;;;;;;2.53;1.43;;;;;;;-144.32;100.00;68061.97;10171065;29;20059;-79
2023/09/22 02:34:59;;;;;;;1.90;1.30;;;;;;;-144.32;100.00;68061.97;10161537;29;20055;-79
2023/09/22 02:39:59;;;;;;;2.50;1.48;;;;;;;-144.32;100.00;68061.97;10156019;29;20051;-78
2023/09/22 02:45:00;;;;;;;3.00;1.50;;;;;;;-144.32;100.00;68061.97;10170303;29;20080;-80
2023/09/22 02:50:00;;;;;;;1.88;1.30;;;;;;;-144.32;100.00;68061.97;10170492;28;20071;-80
2023/09/22 02:55:01;;;;;;;2.90;1.50;;;;;;;-144.32;100.00;68061.97;10181306;29;20054;-79
2023/09/22 03:00:11;;;;;;;2.90;1.40;;;;;;;-144.32;100.00;68061.97;10183072;29;20829;-80
2023/09/22 03:05:15;;;;;;;1.98;1.40;;;;;;;-144.32;100.00;68061.97;10170444;29;20044;-80
2023/09/22 03:10:16;;;;;;;1.63;1.38;;;;;;;-144.32;100.00;68061.97;10175558;29;20743;-80
2023/09/22 03:15:20;;;;;;;3.25;1.60;;;;;;;-144.32;100.00;68061.97;10177709;29;20118;-78
2023/09/22 03:20:21;;;;;;;3.15;1.85;;;;;;;-144.32;100.00;68061.97;10170133;29;20044;-79
2023/09/22 03:25:22;;;;;;;2.05;1.33;;;;;;;-144.32;100.00;68061.97;10178872;29;20108;-80
2023/09/22 03:30:23;;;;;;;2.50;1.40;;;;;;;-144.32;100.00;68061.97;10172742;29;20044;-79
2023/09/22 03:35:24;;;;;;;2.30;1.30;;;;;;;-144.32;100.00;68061.97;10172650;29;20156;-78
2023/09/22 03:40:40;;;;;;;3.13;1.10;;;;;;;-144.32;100.00;68061.97;10173133;29;20047;-79
2023/09/22 03:45:42;;;;;;;2.17;1.30;;;;;;;-144.32;100.00;68061.97;10165427;29;20289;-78
2023/09/22 03:50:42;;;;;;;3.38;1.65;;;;;;;-144.32;100.00;68061.97;10164260;29;20087;-79
2023/09/22 03:55:46;;;;;;;2.83;1.40;;;;;;;-144.32;100.00;68061.97;10163759;29;20086;-80
2023/09/22 04:00:46;;;;;;;4.55;1.60;;;;;;;-144.32;100.00;68061.97;10169743;29;20079;-78
2023/09/22 04:05:47;;;;;;;2.95;1.75;;;;;;;-144.32;100.00;68061.97;10161579;29;20047;-80
2023/09/22 04:10:47;;;;;;;2.05;1.70;;;;;;;-144.32;100.00;68061.97;10162654;29;20449;-81
2023/09/22 04:15:48;;;;;;;1.77;1.33;;;;;;;-144.32;100.00;68061.97;10160327;29;20083;-81
2023/09/22 04:20:51;;;;;;;2.65;1.63;;;;;;;-144.32;100.00;68061.97;10160108;29;20552;-80
2023/09/22 04:25:59;;;;;;;2.60;1.70;;;;;;;-144.32;100.00;68061.97;10155317;28;20040;-78
2023/09/22 04:31:01;;;;;;;2.10;1.40;;;;;;;-144.32;100.00;68061.97;10173218;29;20050;-81
2023/09/22 04:36:01;;;;;;;2.65;1.63;;;;;;;-144.32;100.00;68061.97;10181611;29;20040;-82
2023/09/22 04:41:03;;;;;;;2.45;1.55;;;;;;;-144.32;100.00;68061.97;10180279;29;20420;-80
2023/09/22 04:46:03;;;;;;;2.28;1.67;;;;;;;-144.32;100.00;68061.97;10172271;29;20044;-80
2023/09/22 04:51:05;;;;;;;3.28;1.70;;;;;;;-144.32;100.00;68061.97;10170054;29;20056;-78
2023/09/22 04:56:07;;;;;;;2.60;1.77;;;;;;;-144.32;100.00;68061.97;10172037;29;20040;-87
2023/09/22 05:01:08;;;;;;;2.85;1.58;;;;;;;-144.32;100.00;68061.97;10185978;29;20054;-85
2023/09/22 05:06:09;;;;;;;2.08;1.80;;;;;;;-144.32;100.00;68061.97;10196254;29;20067;-85
2023/09/22 05:11:10;;;;;;;3.05;1.75;;;;;;;-144.32;100.00;68061.97;10187024;29;20051;-82
2023/09/22 05:16:13;;;;;;;4.13;1.90;;;;;;;-144.32;100.00;68061.97;10178959;29;20059;-80
2023/09/22 05:21:13;;;;;;;3.65;1.60;;;;;;;-144.32;100.00;68061.97;10181089;29;20056;-80
2023/09/22 05:26:14;;;;;;;2.00;1.67;;;;;;;-144.32;100.00;68061.97;10180117;29;20083;-83
2023/09/22 05:31:16;;;;;;;3.28;1.88;;;;;;;-144.32;100.00;68061.97;10181400;29;20051;-82
2023/09/22 05:36:17;;;;;;;1.90;1.50;;;;;;;-144.32;100.00;68061.97;10171835;29;20043;-81
2023/09/22 05:41:17;;;;;;;2.45;1.60;;;;;;;-144.32;100.00;68061.97;10173155;29;20055;-82
2023/09/22 05:46:18;;;;;;;2.28;1.67;;;;;;;-144.32;100.00;68061.97;10182112;29;20149;-81
2023/09/22 05:51:19;;;;;;;1.70;1.40;;;;;;;-144.32;100.00;68061.97;10197471;29;20036;-81
2023/09/22 05:56:19;;;;;;;2.47;1.90;;;;;;;-144.32;100.00;68061.97;10202923;29;20139;-83
2023/09/22 06:01:22;;;;;;;6.10;2.30;;;;;;;-144.32;100.00;68061.97;10185952;29;20820;-83
2023/09/22 06:06:22;;;;;;;4.25;2.10;;;;;;;-144.32;100.00;68061.97;10221135;29;20044;-81
2023/09/22 06:11:23;;;;;;;3.75;2.38;;;;;;;-144.32;100.00;68061.97;10225553;29;20060;-80
2023/09/22 06:16:25;;;;;;;2.78;2.30;;;;;;;-144.32;100.00;68061.97;10184223;29;20074;-77
2023/09/22 06:21:26;;;;;;;4.40;2.63;;;;;;;-144.32;100.00;68061.97;10183934;29;20046;-77
2023/09/22 06:26:27;;;;;;;5.10;2.70;;;;;;;-144.32;100.00;68061.97;10171405;29;20862;-76
2023/09/22 06:31:27;;;;;;;4.15;2.58;;;;;;;-144.32;100.00;68061.97;10193420;29;20095;-82
2023/09/22 06:36:29;;;;;;;3.20;2.60;;;;;;;-144.32;100.00;68061.97;10200982;29;20044;-82
2023/09/22 06:41:30;;;;;;;5.13;2.20;;;;;;;-144.32;100.00;68061.97;10166170;29;20054;-81
2023/09/22 06:46:35;;;;;;;2.67;2.10;;;;;;;-144.32;100.00;68061.97;10180296;29;20040;-82
2023/09/22 06:51:37;;;;;;;3.38;2.05;;;;;;;-144.32;100.00;68061.97;10175107;29;20044;-81
2023/09/22 06:56:38;;;;;;;2.22;1.70;;;;;;;-144.32;100.00;68061.97;10196763;29;20048;-82
2023/09/22 07:01:40;;;;;;;2.13;1.67;;;;;;;-144.32;100.00;68061.97;10191459;29;20476;-83
2023/09/22 07:06:41;;;;;;;2.13;1.92;;;;;;;-144.32;100.00;68061.97;10179254;29;20050;-83
2023/09/22 07:11:43;;;;;;;2.92;1.67;;;;;;;-144.32;100.00;68061.97;10179520;29;20039;-83
2023/09/22 07:16:44;;;;;;;2.28;1.50;;;;;;;-144.32;100.00;68061.97;10175046;29;20072;-85
2023/09/22 07:21:45;;;;;;;2.22;1.63;;;;;;;-144.32;100.00;68061.97;10170229;29;20070;-82
2023/09/22 07:26:47;;;;;;;2.80;1.73;;;;;;;-144.32;100.00;68061.97;10164648;29;20055;-81
2023/09/22 07:31:47;;;;;;;4.97;1.80;;;;;;;-144.32;100.00;68061.97;10165512;29;20102;-84
2023/09/22 07:36:48;;;;;;;3.28;1.60;;;;;;;-144.32;100.00;68061.97;10179970;29;20146;-86
2023/09/22 07:41:48;;;;;;;2.85;1.70;;;;;;;-144.32;100.00;68061.97;10189444;29;20055;-86
2023/09/22 07:46:49;;;;;;;2.85;1.80;;;;;;;-144.32;100.00;68061.97;10175195;29;20055;-86
2023/09/22 07:51:49;;;;;;;2.38;1.65;;;;;;;-144.32;100.00;68061.97;10181863;29;20051;-85
2023/09/22 07:56:50;;;;;;;2.80;1.83;;;;;;;-144.32;100.00;68061.97;10189085;29;20054;-83
2023/09/22 08:01:50;;;;;;;3.88;1.92;;;;;;;-144.32;100.00;68061.97;10182680;29;20039;-84
2023/09/22 08:06:52;;;;;;;2.28;1.80;;;;;;;-144.32;100.00;68061.97;10184326;29;20048;-85
2023/09/22 08:11:52;;;;;;;2.30;1.77;;;;;;;-144.32;100.00;68061.97;10178644;29;20408;-85
2023/09/22 08:16:53;;;;;;;2.80;2.30;;;;;;;-144.32;100.00;68061.97;10178193;29;20050;-84
2023/09/22 08:21:54;;;;;;;2.55;1.73;;;;;;;-144.32;100.00;68061.97;10185420;29;20056;-85
2023/09/22 08:26:57;;;;;;;4.30;1.95;;;;;;;-144.32;100.00;68061.97;10187725;29;20047;-85
2023/09/22 08:31:59;;;;;;;2.25;1.67;;;;;;;-144.32;100.00;68061.97;10196957;29;20048;-84
2023/09/22 08:37:00;;;;;;;5.43;2.00;;;;;;;-144.32;100.00;68061.97;10217092;29;20047;-86
2023/09/22 08:42:01;;;;;;;2.60;1.67;;;;;;;-144.32;100.00;68061.97;10202899;29;20142;-86
2023/09/22 08:47:02;;;;;;;2.20;1.67;;;;;;;-144.32;100.00;68061.97;10178106;29;20071;-82
2023/09/22 08:52:04;;;;;;;3.88;1.95;;;;;;;-144.32;100.00;68061.97;10181347;29;20067;-82
2023/09/22 08:57:06;;;;;;;3.00;2.13;;;;;;;-144.32;100.00;68061.97;10180567;29;20051;-84
2023/09/22 09:02:09;;;;;;;2.57;2.17;;;;;;;-144.32;100.00;68061.97;10193800;29;20712;-82
2023/09/22 09:07:15;;;;;;;;;;;;;;;-144.32;100.00;68061.97;10183721;29;20274;-84
2023/09/22 09:12:17;;;;;;;6.15;3.35;;;;;;;-144.32;100.00;68061.97;10180972;29;19937;-85
2023/09/22 09:17:19;;;;;;;5.78;3.60;;;;;;;-144.32;100.00;68061.97;10192398;29;20512;-84
2023/09/22 09:22:30;;;;;;;2.97;2.53;;;;;;;-144.32;100.00;68061.97;10196349;29;20063;-81
2023/09/22 09:27:31;;;;;;;3.85;3.08;;;;;;;-144.32;100.00;68061.97;10198728;29;20050;-84
2023/09/22 09:32:32;;;;;;;3.70;2.80;;;;;;;-144.32;100.00;68061.97;10196316;29;20330;-84
2023/09/22 09:37:33;;;;;;;4.70;3.17;;;;;;;-144.32;100.00;68061.97;10192121;29;20187;-84
2023/09/22 09:42:40;;;;;;;3.70;3.17;;;;;;;-144.32;100.00;68061.97;10199985;29;20047;-85
2023/09/22 09:47:45;;;;;;;4.30;2.97;;;;;;;-144.32;100.00;68061.97;10216654;29;20047;-83
2023/09/22 09:52:52;;;;;;;3.25;2.95;;;;;;;-144.32;100.00;68061.97;10202447;29;20063;-84
2023/09/22 09:57:56;;;;;;;5.88;3.45;;;;;;;-144.32;100.00;68061.97;10210420;29;20091;-84
2023/09/22 10:02:59;;;;;;;3.67;3.35;;;;;;;-144.32;100.00;68061.97;10212769;29;20048;-82
2023/09/22 10:08:00;;;;;;;4.95;3.63;;;;;;;-144.32;100.00;68061.97;10187402;28;20153;-84
2023/09/22 10:13:00;;;;;;;4.85;3.75;;;;;;;-144.32;100.00;68061.97;10213635;29;20076;-82
2023/09/22 10:18:01;;;;;;;6.38;4.15;;;;;;;-144.32;100.00;68061.97;10210327;28;20055;-83
2023/09/22 10:23:19;;;;;;;5.38;4.63;;;;;;;-144.32;100.00;68061.97;10174001;29;20044;-81
2023/09/22 10:28:27;;;;;;;5.65;4.68;;;;;;;-144.32;100.00;68061.97;10169778;29;20051;-83
2023/09/22 10:33:32;;;;;;;6.22;4.97;;;;;;;-144.32;100.00;68061.97;10178932;29;20071;-83
2023/09/22 10:38:56;;;;;;;4.72;4.05;;;;;;;-144.32;100.00;68061.97;10177951;29;20056;-83
2023/09/22 10:43:58;;;;;;;5.55;3.47;;;;;;;-144.32;100.00;68061.97;10192126;29;20047;-80
2023/09/22 10:48:59;;;;;;;;;;;;;;;-144.32;100.00;68061.97;10187426;29;20051;-81
2023/09/22 10:53:59;;;;;;;3.27;2.70;;;;;;;-144.32;100.00;68061.97;10204879;29;19950;-83
2023/09/22 10:59:01;;;;;;;3.20;2.58;;;;;;;-144.32;100.00;68061.97;10215553;28;20246;-83
2023/09/22 11:04:04;;;;;;;4.45;2.80;;;;;;;-144.32;100.00;68061.97;10218809;29;20044;-82
2023/09/22 11:09:05;;;;;;;2.97;2.53;;;;;;;-144.32;100.00;68061.97;10177271;29;20091;-83
2023/09/22 11:14:07;;;;;;;2.92;2.42;;;;;;;-144.32;100.00;68061.97;10179542;29;20489;-81
2023/09/22 11:19:11;;;;;;;3.90;2.40;;;;;;;-144.32;100.00;68061.97;10182985;29;20044;-83
2023/09/22 11:24:21;;;;;;;4.18;2.08;;;;;;;-144.32;100.00;68061.97;10173118;29;20056;-82
2023/09/22 11:29:23;;;;;;;3.15;2.33;;;;;;;-144.32;100.00;68061.97;10181047;29;20512;-83
2023/09/22 11:34:24;;;;;;;3.03;2.40;;;;;;;-144.32;100.00;68061.97;10174238;29;20127;-82
2023/09/22 11:39:30;;;;;;;2.78;1.92;;;;;;;-144.32;100.00;68061.97;10181086;29;20056;-83
2023/09/22 11:44:31;;;;;;;2.35;1.88;;;;;;;-144.32;100.00;68061.97;10163318;29;20052;-82
2023/09/22 11:49:36;;;;;;;2.83;1.70;;;;;;;-144.32;100.00;68061.97;10198444;29;20028;-82
2023/09/22 11:54:37;;;;;;;2.42;1.67;;;;;;;-144.32;100.00;68061.97;10224060;28;20052;-85
2023/09/22 11:59:40;;;;;;;2.90;1.77;;;;;;;-144.32;100.00;68061.97;10198879;29;20056;-83
2023/09/22 12:04:42;;;;;;;1.80;1.40;;;;;;;-144.32;100.00;68061.97;10159712;29;20052;-83
2023/09/22 12:09:42;;;;;;;1.88;1.40;;;;;;;-144.32;100.00;68061.97;10156082;29;20567;-83
2023/09/22 12:14:43;;;;;;;4.22;1.33;;;;;;;-144.32;100.00;68061.97;10152896;29;20099;-83
2023/09/22 12:19:43;;;;;;;3.72;2.03;;;;;;;-144.32;100.00;68061.97;10181115;29;20108;-84
2023/09/22 12:24:43;;;;;;;3.42;2.75;;;;;;;-144.32;100.00;68061.97;10175263;29;20039;-85
2023/09/22 12:29:44;;;;;;;3.42;2.70;;;;;;;-144.32;100.00;68061.97;10167299;29;20048;-85
2023/09/22 12:34:45;;;;;;;4.50;3.20;;;;;;;-144.32;100.00;68061.97;10192500;29;20146;-82
2023/09/22 12:39:45;;;;;;;3.88;3.50;;;;;;;-144.32;100.00;68061.97;10183755;28;20044;-83
2023/09/22 12:44:46;;;;;;;4.57;3.30;;;;;;;-144.32;100.00;68061.97;10190107;29;20103;-84
2023/09/22 12:49:46;;;;;;;4.07;3.63;;;;;;;-144.32;100.00;68061.97;10165866;29;20044;-86
2023/09/22 12:54:47;;;;;;;3.47;3.15;;;;;;;-144.32;100.00;68061.97;10174456;29;20064;-84
2023/09/22 12:59:47;;;;;;;2.80;2.60;;;;;;;-144.32;100.00;68061.97;10178227;29;20544;-86
2023/09/22 13:04:48;;;;;;;2.50;2.08;;;;;;;-144.32;100.00;68061.97;10175928;29;20044;-84
2023/09/22 13:09:52;;;;;;;1.75;1.30;;;;;;;-144.32;100.00;68061.97;10168666;29;20043;-86
2023/09/22 13:14:54;;;;;;;2.95;1.40;;;;;;;-144.32;100.00;68061.97;10172111;29;20048;-86
2023/09/22 13:19:55;;;;;;;1.30;1.10;;;;;;;-144.32;100.00;68061.97;10175650;29;20049;-86
2023/09/22 13:24:56;;;;;;;2.03;1.27;;;;;;;-144.32;100.00;68061.97;10210803;29;20028;-81
2023/09/22 13:29:56;;;;;;;3.88;1.13;;;;;;;-144.32;100.00;68061.97;10208386;29;20111;-85
2023/09/22 13:34:57;;;;;;;1.15;1.05;;;;;;;-144.32;100.00;68061.97;10209605;29;20051;-85
2023/09/22 13:39:58;;;;;;;1.60;1.15;;;;;;;-144.32;100.00;68061.97;10231379;28;20050;-83
2023/09/22 13:45:00;;;;;;;1.17;1.08;;;;;;;-144.32;100.00;68061.97;10220552;28;20055;-83
2023/09/22 13:50:01;;;;;;;2.35;1.30;;;;;;;-144.32;100.00;68061.97;10227176;29;20052;-83
2023/09/22 13:55:04;;;;;;;2.30;1.00;;;;;;;-144.32;100.00;68061.97;10200074;29;20064;-86
2023/09/22 14:00:11;;;;;;;2.53;1.20;;;;;;;-144.32;100.00;68061.97;10152570;29;20052;-85
2023/09/22 14:05:11;;;;;;;1.30;1.05;;;;;;;-144.32;100.00;68061.97;10194366;29;20064;-86
2023/09/22 14:10:14;;;;;;;1.60;1.00;;;;;;;-144.32;100.00;68061.97;10190309;29;20814;-83
2023/09/22 14:15:14;;;;;;;1.30;0.80;;;;;;;-144.32;100.00;68061.97;10206548;29;20044;-83
2023/09/22 14:20:15;;;;;;;1.98;1.10;;;;;;;-144.32;100.00;68061.97;10185862;29;20032;-85
2023/09/22 14:25:16;;;;;;;3.13;1.13;;;;;;;-144.32;100.00;68061.97;10203588;29;20059;-83
2023/09/22 14:30:18;;;;;;;0.85;0.77;;;;;;;-144.32;100.00;68061.97;10184293;29;20782;-86
2023/09/22 14:35:19;;;;;;;1.30;0.90;;;;;;;-144.32;100.00;68061.97;10180401;29;20059;-82
2023/09/22 14:40:19;;;;;;;0.90;0.77;;;;;;;-144.32;100.00;68061.97;10195747;29;20056;-85
2023/09/22 14:45:20;;;;;;;0.90;0.80;;;;;;;-144.32;100.00;68061.97;10208050;29;20552;-83
2023/09/22 14:50:24;;;;;;;1.40;0.80;;;;;;;-144.32;100.00;68061.97;10192792;29;20032;-80
2023/09/22 14:55:25;;;;;;;1.10;1.00;;;;;;;-144.32;100.00;68061.97;10182729;29;20044;-81
2023/09/22 15:00:26;;;;;;;1.05;0.70;;;;;;;-144.32;100.00;68061.97;10176431;28;20519;-81
2023/09/22 15:05:26;;;;;;;1.45;0.90;;;;;;;-144.32;100.00;68061.97;10160414;29;20178;-81
2023/09/22 15:10:28;;;;;;;1.58;1.00;;;;;;;-144.32;100.00;68061.97;10177909;29;20086;-80
2023/09/22 15:15:29;;;;;;;0.85;0.70;;;;;;;-144.32;100.00;68061.97;10166378;29;20087;-80
2023/09/22 15:20:29;;;;;;;3.28;1.17;;;;;;;-144.32;100.00;68061.97;10172463;29;20063;-79
2023/09/22 15:25:30;;;;;;;1.67;1.00;;;;;;;-144.32;100.00;68061.97;10167387;29;20063;-79
2023/09/22 15:30:30;;;;;;;1.02;0.77;;;;;;;-144.32;100.00;68061.97;10177614;29;20043;-82
2023/09/22 15:35:31;;;;;;;1.15;0.90;;;;;;;-144.32;100.00;68061.97;10197184;29;20552;-82
2023/09/22 15:40:33;;;;;;;1.70;1.10;;;;;;;-144.32;100.00;68061.97;10151044;29;20052;-86
2023/09/22 15:45:35;;;;;;;1.10;0.90;;;;;;;-144.32;100.00;68061.97;10183611;29;20060;-80
2023/09/22 15:50:37;;;;;;;2.47;1.90;;;;;;;-144.32;100.00;68061.97;10208369;29;20107;-79
2023/09/22 15:55:37;;;;;;;1.63;1.10;;;;;;;-144.32;100.00;68061.97;10190102;29;20589;-83
2023/09/22 16:00:44;;;;;;;2.92;1.90;;;;;;;-144.32;100.00;68061.97;10178029;29;20063;-82
2023/09/22 16:05:45;;;;;;;3.22;2.42;;;;;;;-144.32;100.00;68061.97;10182835;29;20047;-84
2023/09/22 16:10:47;;;;;;;2.97;1.70;;;;;;;-144.32;100.00;68061.97;10181944;29;20055;-84
2023/09/22 16:15:48;;;;;;;2.60;1.53;;;;;;;-144.32;100.00;68061.97;10174514;29;20632;-85
2023/09/22 16:20:49;;;;;;;4.05;1.90;;;;;;;-144.32;100.00;68061.97;10174837;29;20052;-84
2023/09/22 16:26:00;;;;;;;3.45;1.83;;;;;;;-144.32;100.00;68061.97;10173007;29;20087;-81
2023/09/22 16:31:01;;;;;;;3.30;1.80;;;;;;;-144.32;100.00;68061.97;10169741;29;20044;-86
2023/09/22 16:36:03;;;;;;;2.75;1.58;;;;;;;-144.32;100.00;68061.97;10150688;28;20512;-80
2023/09/22 16:41:07;;;;;;;1.67;1.15;;;;;;;-144.32;100.00;68061.97;10180214;28;20044;-78
2023/09/22 16:46:08;;;;;;;2.33;1.00;;;;;;;-144.32;100.00;68061.97;10169045;29;20257;-78
2023/09/22 16:51:09;;;;;;;1.65;1.00;;;;;;;-144.32;100.00;68061.97;10161687;29;20052;-85
2023/09/22 16:56:12;;;;;;;3.33;1.00;;;;;;;-144.32;100.00;68061.97;10174778;29;20041;-81
2023/09/22 17:01:12;;;;;;;;;;;;;;;-144.32;100.00;68061.97;10153582;29;20165;-79
2023/09/22 17:06:13;;;;;;;2.20;0.80;;;;;;;-144.32;100.00;68061.97;10151048;29;20346;-82
2023/09/22 17:11:14;;;;;;;2.60;1.00;;;;;;;-144.32;100.00;68061.97;10178288;29;20292;-82
2023/09/22 17:16:14;;;;;;;1.70;0.98;;;;;;;-144.32;100.00;68061.97;10197674;29;20051;-81
2023/09/22 17:21:16;;;;;;;2.08;1.27;;;;;;;-144.32;100.00;68061.97;10167638;29;20079;-81
2023/09/22 17:26:16;;;;;;;1.63;1.10;;;;;;;-144.32;100.00;68061.97;10180935;29;20052;-79
2023/09/22 17:31:16;;;;;;;2.05;1.40;;;;;;;-144.32;100.00;68061.97;10180729;29;20044;-82
2023/09/22 17:36:17;;;;;;;4.20;1.95;;;;;;;-144.32;100.00;68061.97;10166770;29;20136;-81
2023/09/22 17:41:22;;;;;;;3.83;2.05;;;;;;;-144.32;100.00;68061.97;10195891;29;20055;-80
2023/09/22 17:46:24;;;;;;;2.08;1.30;;;;;;;-144.32;100.00;68061.97;10196665;28;20071;-81
2023/09/22 17:51:25;;;;;;;2.67;1.50;;;;;;;-144.32;100.00;68061.97;10186127;29;20044;-80
2023/09/22 17:56:26;;;;;;;1.20;0.88;;;;;;;-144.32;100.00;68061.97;10188481;29;20048;-82
2023/09/22 18:01:27;;;;;;;1.50;1.00;;;;;;;-144.32;100.00;68061.97;10195463;29;20059;-83
2023/09/22 18:06:28;;;;;;;2.05;1.10;;;;;;;-144.32;100.00;68061.97;10179546;29;20050;-86
2023/09/22 18:11:29;;;;;;;4.40;1.63;;;;;;;-144.32;100.00;68061.97;10196142;29;20044;-87
2023/09/22 18:16:33;;;;;;;3.25;1.60;;;;;;;-144.32;100.00;68061.97;10189149;29;20041;-83
2023/09/22 18:21:34;;;;;;;1.75;1.02;;;;;;;-144.32;100.00;68061.97;10186083;29;20055;-83
2023/09/22 18:26:35;;;;;;;1.33;1.05;;;;;;;-144.32;100.00;68061.97;10194337;29;20124;-86
2023/09/22 18:31:37;;;;;;;1.58;1.10;;;;;;;-144.32;100.00;68061.97;10178729;29;20040;-85
2023/09/22 18:36:38;;;;;;;2.72;1.20;;;;;;;-144.32;100.00;68061.97;10184235;29;20054;-83
2023/09/22 18:41:38;;;;;;;2.88;1.17;;;;;;;-144.32;100.00;68061.97;10185412;29;20067;-81
2023/09/22 18:46:39;;;;;;;1.70;1.25;;;;;;;-144.32;100.00;68061.97;10177073;29;20048;-83
2023/09/22 18:51:41;;;;;;;1.10;1.00;;;;;;;-144.32;100.00;68061.97;10164134;29;20051;-83
2023/09/22 18:56:42;;;;;;;3.35;1.85;;;;;;;-144.32;100.00;68061.97;10171784;29;20586;-78
2023/09/22 19:01:43;;;;;;;1.83;0.95;;;;;;;-144.32;100.00;68061.97;10165206;29;20087;-79
2023/09/22 19:06:46;;;;;;;1.92;1.25;;;;;;;-144.32;100.00;68061.97;10173252;29;20051;-80
2023/09/22 19:11:46;;;;;;;2.25;1.55;;;;;;;-144.32;100.00;68061.97;10174314;29;20485;-82
2023/09/22 19:16:48;;;;;;;2.13;1.50;;;;;;;-144.32;100.00;68061.97;10184286;29;20048;-80
2023/09/22 19:21:49;;;;;;;1.80;1.40;;;;;;;-144.32;100.00;68061.97;10157773;29;20854;-81
2023/09/22 19:26:52;;;;;;;1.58;1.38;;;;;;;-144.32;100.00;68061.97;10138744;29;20043;-80
2023/09/22 19:31:53;;;;;;;1.83;1.55;;;;;;;-144.32;100.00;68061.97;10178343;29;20044;-81
2023/09/22 19:36:53;;;;;;;1.73;1.35;;;;;;;-144.32;100.00;68061.97;10183171;29;20032;-79
2023/09/22 19:41:53;;;;;;;1.95;1.50;;;;;;;-144.32;100.00;68061.97;10189739;29;20058;-80
2023/09/22 19:46:54;;;;;;;2.33;1.40;;;;;;;-144.32;100.00;68061.97;10201935;28;20127;-80
2023/09/22 19:51:54;;;;;;;2.58;1.70;;;;;;;-144.32;100.00;68061.97;10184392;29;20091;-80
2023/09/22 19:56:55;;;;;;;2.17;1.50;;;;;;;-144.32;100.00;68061.97;10158676;29;20436;-80
2023/09/22 20:01:57;;;;;;;1.63;1.33;;;;;;;-144.32;100.00;68061.97;10172197;29;20070;-82
2023/09/22 20:06:57;;;;;;;2.25;1.27;;;;;;;-144.32;100.00;68061.97;10164852;29;20048;-81
2023/09/22 20:12:01;;;;;;;1.52;1.20;;;;;;;-144.32;100.00;68061.97;10162454;29;20044;-79
2023/09/22 20:17:02;;;;;;;1.30;1.20;;;;;;;-144.32;100.00;68061.97;10164422;29;20048;-80
2023/09/22 20:22:03;;;;;;;1.63;1.25;;;;;;;-144.32;100.00;68061.97;10163418;29;20050;-80
2023/09/22 20:27:03;;;;;;;1.40;1.30;;;;;;;-144.32;100.00;68061.97;10157349;29;20801;-82
2023/09/22 20:32:06;;;;;;;2.33;1.60;;;;;;;-144.32;100.00;68061.97;10165136;29;20044;-81
2023/09/22 20:37:07;;;;;;;2.85;1.30;;;;;;;-144.32;100.00;68061.97;10184357;29;20060;-82
2023/09/22 20:42:07;;;;;;;1.52;1.20;;;;;;;-144.32;100.00;68061.97;10173099;29;20051;-82
2023/09/22 20:47:09;;;;;;;1.58;0.95;;;;;;;-144.32;100.00;68061.97;10184365;28;20119;-83
2023/09/22 20:52:10;;;;;;;1.43;1.20;;;;;;;-144.32;100.00;68061.97;10190630;29;20044;-82
2023/09/22 20:57:11;;;;;;;2.35;1.33;;;;;;;-144.32;100.00;68061.97;10185651;29;20047;-81
2023/09/22 21:02:11;;;;;;;1.83;1.20;;;;;;;-144.32;100.00;68061.97;10186684;29;20572;-82
2023/09/22 21:07:13;;;;;;;2.47;1.40;;;;;;;-144.32;100.00;68061.97;10173274;29;20047;-79
2023/09/22 21:12:13;;;;;;;3.25;1.67;;;;;;;-144.32;100.00;68061.97;10178941;29;20053;-82
2023/09/22 21:17:14;;;;;;;1.77;1.10;;;;;;;-144.32;100.00;68061.97;10177776;29;20047;-81
2023/09/22 21:22:14;;;;;;;1.50;1.15;;;;;;;-144.32;100.00;68061.97;10141252;29;20058;-83
2023/09/22 21:27:15;;;;;;;2.22;1.15;;;;;;;-144.32;100.00;68061.97;10156275;29;20564;-81
2023/09/22 21:32:15;;;;;;;1.50;1.10;;;;;;;-144.32;100.00;68061.97;10172318;29;20056;-79
2023/09/22 21:37:16;;;;;;;1.73;1.10;;;;;;;-144.32;100.00;68061.97;10176196;29;20107;-79
2023/09/22 21:42:16;;;;;;;1.45;1.25;;;;;;;-144.32;100.00;68061.97;10176967;29;20048;-79
2023/09/22 21:47:17;;;;;;;1.80;1.40;;;;;;;-144.32;100.00;68061.97;10168772;29;20096;-79
2023/09/22 21:52:17;;;;;;;1.48;1.10;;;;;;;-144.32;100.00;68061.97;10170279;29;20048;-79
2023/09/22 21:57:20;;;;;;;3.33;1.42;;;;;;;-144.32;100.00;68061.97;10170014;29;20052;-79
2023/09/22 22:02:20;;;;;;;1.65;1.33;;;;;;;-144.32;100.00;68061.97;10180242;29;20055;-79
2023/09/22 22:07:21;;;;;;;1.42;1.30;;;;;;;-144.32;100.00;68061.97;10175253;29;20066;-78
2023/09/22 22:12:22;;;;;;;2.88;1.17;;;;;;;-144.32;100.00;68061.97;10177673;29;20103;-79
2023/09/22 22:17:24;;;;;;;1.95;1.35;;;;;;;-144.32;100.00;68061.97;10178084;29;20048;-78
2023/09/22 22:22:24;;;;;;;1.58;1.48;;;;;;;-144.32;100.00;68061.97;10171444;29;20402;-79
2023/09/22 22:27:25;;;;;;;1.90;1.30;;;;;;;-144.32;100.00;68061.97;10177869;29;20043;-78
2023/09/22 22:32:25;;;;;;;2.40;1.45;;;;;;;-144.32;100.00;68061.97;10175685;29;20056;-79
2023/09/22 22:37:26;;;;;;;2.00;1.55;;;;;;;-144.32;100.00;68061.97;10181224;29;20100;-78